الكل
Nangis-Les Loges Airport LFAI حالة الطقس
There is no TAF data available at LFAI or any nearby airports.
There is no METAR data available at LFAI. Showing METAR data for LFPM (15 mi غرب).
محفوظات أحدث تقرير روتيني عن حالة الطقس من أجل الطيران (الميتار) LFPM ( لا توجد بيانات لـLFAI)
| Date | Time (CEST) | Flight Rules | Wind Dir. | Speed | Type | Height AGL (ft) | Visibility | Temp (°C) | Temp (°F) | Dew Point (°C) | Dew Point (°F) | Rel. Humid. | Pressure | Density Altitude | Remarks |
|---|---|---|---|---|---|---|---|---|---|---|---|---|---|---|---|
| 02-ماي | 19:30 | VFR | 260° | 9 kt | 10000 meters | 21° | 69° | 13° | 55° | 60% | 1014 mb | 999 ft | |||
| 02-ماي | 19:00 | VFR | 260° | 11 kt | 10000 meters | 22° | 71° | 12° | 53° | 53% | 1014 mb | 1,119 ft | |||
| 02-ماي | 18:30 | VFR | 250° | 13 kt | 10000 meters | 23° | 73° | 10° | 50° | 44% | 1014 mb | 1,239 ft | |||
| 02-ماي | 18:00 | VFR | 240° | 14 kt | 10000 meters | 24° | 75° | 11° | 51° | 44% | 1014 mb | 1,359 ft | |||
| 02-ماي | 17:30 | VFR | 230° | 10 kt | 10000 meters | 25° | 77° | 11° | 51° | 41% | 1014 mb | 1,479 ft | |||
| 02-ماي | 17:00 | VFR | 220° | 9 kt | 10000 meters | 25° | 77° | 11° | 51° | 41% | 1014 mb | 1,479 ft | |||
| 02-ماي | 16:30 | VFR | 200° | 11 kt | 10000 meters | 26° | 78° | 10° | 50° | 37% | 1015 mb | 1,569 ft | |||
| 02-ماي | 16:00 | VFR | 190° | 14 kt | 10000 meters | 25° | 77° | 8° | 46° | 34% | 1015 mb | 1,449 ft | |||
| 02-ماي | 15:30 | VFR | 170° | 11 kt | 10000 meters | 25° | 77° | 10° | 50° | 39% | 1016 mb | 1,420 ft | |||
| 02-ماي | 15:00 | VFR | 140° | 11 kt | 10000 meters | 25° | 77° | 13° | 55° | 47% | 1016 mb | 1,420 ft | |||
| 02-ماي | 14:30 | VFR | 160° | 11 kt | 10000 meters | 25° | 77° | 13° | 55° | 47% | 1016 mb | 1,420 ft | |||
| 02-ماي | 14:00 | VFR | 170° | 9 kt | 10000 meters | 24° | 75° | 13° | 55° | 50% | 1017 mb | 1,270 ft | |||
| 02-ماي | 13:30 | VFR | 140° | 10 kt | 10000 meters | 24° | 75° | 14° | 57° | 54% | 1017 mb | 1,270 ft | |||
| 02-ماي | 13:00 | VFR | 150° | 9 kt | 10000 meters | 23° | 73° | 15° | 59° | 61% | 1017 mb | 1,150 ft | |||
| 02-ماي | 12:30 | VFR | 130° | 9 kt | 10000 meters | 22° | 71° | 15° | 59° | 65% | 1018 mb | 1,000 ft | |||
| 02-ماي | 12:00 | VFR | 140° | 5 kt | 10000 meters | 22° | 71° | 16° | 60° | 69% | 1018 mb | 1,000 ft | |||
| 02-ماي | 11:30 | VFR | 160° | 3 kt | 10000 meters | 21° | 69° | 16° | 60° | 73% | 1018 mb | 880 ft | |||
| 02-ماي | 11:00 | VFR | 160° | 3 kt | 10000 meters | 19° | 66° | 16° | 60° | 83% | 1019 mb | 611 ft | |||
| 02-ماي | 10:30 | VFR | 140° | 4 kt | 10000 meters | 17° | 62° | 15° | 59° | 88% | 1019 mb | 371 ft | |||
| 02-ماي | 10:00 | VFR | 160° | 5 kt | 10000 meters | 17° | 62° | 15° | 59° | 88% | 1019 mb | 371 ft | |||
| 02-ماي | 09:30 | VFR | 150° | 6 kt | 10000 meters | 17° | 62° | 15° | 59° | 88% | 1019 mb | 371 ft | |||
| 02-ماي | 09:00 | VFR | 140° | 4 kt | 10000 meters | 16° | 60° | 15° | 59° | 94% | 1019 mb | 251 ft | |||
| 02-ماي | 08:30 | VFR | 130° | 4 kt | 10000 meters |
15° | 59° | 15° | 59° | 100% | 1019 mb | 131 ft | |||
| 02-ماي | 08:00 | VFR | 100° | 3 kt | 9000 meters | 14° | 57° | 14° | 57° | 100% | 1019 mb | 11 ft |
تسجيل الدخول
| مُتصفحك غير مُدعَّم. قم بترقية متصفحك |
